CheckWX is a tool to help pilots better visualize weather data.  It is not intended as a substitute for an official pre-flight weather briefing.

11:00:00 UTC

KLFT METAR
Lafayette Regional / Paul Fournet Field Airport
Lafayette, Louisiana, USA
Current

1 hour ago

KLFT 140953Z AUTO 00000KT 10SM OVC075 20/17 A3001 RMK AO2 SLP161 T02000172 $
Observed
Oct-14 @ 09:53 UTC
Visibility
10 SM
Flight Rules
VFR
Cloud Levels
  • Overcast at 7,500' AGL
Temperature
20°C / 68°F
Dewpoint
17°C / 63°F
Humidity
83%
Altimeter
30.01" Hg
Pressure
1016.22 hPa
Previous

2 hours ago

KLFT 140853Z AUTO 00000KT 10SM BKN085 OVC110 20/17 A3000 RMK AO2 SLP160 T02000172 58006 $
Observed
Oct-14 @ 08:53 UTC
Visibility
10 SM
Flight Rules
VFR
Cloud Levels
  • Broken at 8,500' AGL
  • Overcast at 11,000' AGL
Temperature
20°C / 68°F
Dewpoint
17°C / 63°F
Humidity
83%
Altimeter
30" Hg
Pressure
1015.92 hPa
Previous

3 hours ago

KLFT 140753Z AUTO 00000KT 10SM SCT075 19/17 A3002 RMK AO2 SLP164 T01940167 $
Observed
Oct-14 @ 07:53 UTC
Visibility
10 SM
Flight Rules
VFR
Cloud Levels
  • Scattered at 7,500' AGL
Temperature
19°C / 66°F
Dewpoint
17°C / 63°F
Humidity
88%
Altimeter
30.02" Hg
Pressure
1016.62 hPa